Airfield :
LOGIN :

Register | Disclaimer

   EN    FR    IT 

 










Legend :    VFR   Marginal VFR   IFR   Intensive IFR   Very Intensive IFR
Visi :
Ceiling :
>= 8 km
>= 3000ft
5 to 8 km
1000 to 3000 ft
1500m to 5 km
500 to 1000 ft
800 to 1500m
200 to 500 ft
< 800m
< 200 ft
Symbols :   Thunderstorms  Fog  Heavy snow  Heavy precipitations  Wind > 20 kt
SIGMETs :     Misc.  Thunderstorms  Icing  Turbulence  Mountain Waves  Volcanic Ashes






- Airport Elevation : 49 ft
- IATA code : AOI


LIPY - Ancona Falconara

CURRENT METAR :
  • 291150Z AUTO 07009KT 9999 BKN055/// 15/11 Q1011

EXPIRED METARs :
  • 291120Z AUTO 07010KT 9999 -DZ BKN056/// 15/11 Q1011
  • 291050Z AUTO 07010KT 9999 BKN057/// 15/11 Q1011
  • 291020Z AUTO 05010KT 9999 BKN058/// BKN086/// 15/11 Q1012
  • 290950Z AUTO 06011KT 9999 FEW059/// SCT086/// 15/11 Q1012
  • 290920Z AUTO 04010KT 9999 FEW073/// SCT090/// BKN100/// 14/12 Q1012
  • 290850Z AUTO 04007KT 9999 BKN054/// BKN097/// BKN100/// 14/13 Q1012
  • 290820Z AUTO 05007KT 9999 BKN054/// 14/13 Q1012
  • 290750Z AUTO 05008KT 9999 SCT052/// BKN063/// BKN120/// 13/12 Q1012
  • 290720Z AUTO 07008KT 050V110 9999 -RA BKN036/// OVC070/// 13/12 Q1013 RERA

TAF TAF LIPY
Valid from the 29 at 12:00 until the 01 at 12:00 UTC


291100Z 2912/0112 08016KT 9999 BKN030
TEMPO 2912/2921 RA
TEMPO 2921/0102 3000 TSRA
TEMPO 0102/0106 RA



MET'MAP, your aeronautical weather chart ! - Copyright ORBIFLY December 2007 - Disclaimer

ORBIFLY MET'MAP TEAM :

Programming & Development : Alexandra Zaïnal
Original concept : Baudouin d'Aumeries
Technical & hardware support : Manuel Goepfert
Assistance : Marc-Olivier Méhu




SOURCES & CREDITS :

   NOAA